Main page
METAR-TAF:

METAR-TAF

Airports :

RAF Wittering

Wittering, England

latitude: 52-37N, longitude: 000-28W, elevation: 84 m

Current weather observation

The report was made 33 minutes ago, at 06:50 UTC
Wind 9 kt from the West/Northwest
Temperature 3°C
Humidity 93%
Pressure 1019 hPa
Visibility 10 km or more

METAR: EGXT 170650Z AUTO 29009KT 9999 FEW024/// 03/02 Q1019

Time: 07:23 (07:23 UTC)


TAF: missing

Weather observations and forecasts of more than 4000 airports (METAR and TAF reports).

The available stations are represented by yellow and red dots on the map.

Hover mouse over dot to see the name of the station.

Then click to see weather observations and forecasts.

To change the map : click on the green buttons with a black cross to zoom in, on the green button with a dash to zoom out, or on the green arrows for adjacent maps.


METAR-TAF: